sensor_id;sensor_type;location;lat;lon;timestamp;pressure;altitude;pressure_sealevel;temperature;humidity
49461;BME280;35355;49.198;-0.368;2024-03-29T00:00:57;98203.19;;;10.35;58.54
49461;BME280;35355;49.198;-0.368;2024-03-29T00:03:24;98196.91;;;10.34;58.64
49461;BME280;35355;49.198;-0.368;2024-03-29T00:05:49;98196.25;;;10.38;58.95
49461;BME280;35355;49.198;-0.368;2024-03-29T00:08:15;98188.56;;;10.40;59.14
49461;BME280;35355;49.198;-0.368;2024-03-29T00:10:40;98185.34;;;10.38;58.95
49461;BME280;35355;49.198;-0.368;2024-03-29T00:13:05;98184.72;;;10.41;58.92
49461;BME280;35355;49.198;-0.368;2024-03-29T00:15:32;98189.84;;;10.42;59.13
49461;BME280;35355;49.198;-0.368;2024-03-29T00:17:58;98180.88;;;10.42;58.66
49461;BME280;35355;49.198;-0.368;2024-03-29T00:20:23;98178.13;;;10.42;58.85
49461;BME280;35355;49.198;-0.368;2024-03-29T00:22:52;98179.25;;;10.41;58.76
49461;BME280;35355;49.198;-0.368;2024-03-29T00:25:17;98183.13;;;10.40;58.69
49461;BME280;35355;49.198;-0.368;2024-03-29T00:27:43;98190.34;;;10.35;58.67
49461;BME280;35355;49.198;-0.368;2024-03-29T00:30:10;98182.00;;;10.32;58.85
49461;BME280;35355;49.198;-0.368;2024-03-29T00:32:35;98184.22;;;10.30;58.96
49461;BME280;35355;49.198;-0.368;2024-03-29T00:35:00;98195.91;;;10.30;59.23
49461;BME280;35355;49.198;-0.368;2024-03-29T00:37:29;98198.19;;;10.28;59.11
49461;BME280;35355;49.198;-0.368;2024-03-29T00:39:56;98213.41;;;10.29;58.98
49461;BME280;35355;49.198;-0.368;2024-03-29T00:42:22;98213.75;;;10.28;58.99
49461;BME280;35355;49.198;-0.368;2024-03-29T00:44:49;98208.13;;;10.24;59.09
49461;BME280;35355;49.198;-0.368;2024-03-29T00:47:15;98216.94;;;10.21;58.95
49461;BME280;35355;49.198;-0.368;2024-03-29T00:49:44;98207.97;;;10.21;59.24
49461;BME280;35355;49.198;-0.368;2024-03-29T00:52:09;98199.94;;;10.15;59.37
49461;BME280;35355;49.198;-0.368;2024-03-29T00:54:34;98220.78;;;10.20;59.24
49461;BME280;35355;49.198;-0.368;2024-03-29T00:57:00;98210.53;;;10.17;59.25
49461;BME280;35355;49.198;-0.368;2024-03-29T00:59:25;98205.06;;;10.17;59.27
49461;BME280;35355;49.198;-0.368;2024-03-29T01:01:51;98187.28;;;10.11;59.20
49461;BME280;35355;49.198;-0.368;2024-03-29T01:04:18;98184.56;;;10.11;58.96
49461;BME280;35355;49.198;-0.368;2024-03-29T01:06:43;98187.94;;;10.08;59.28
49461;BME280;35355;49.198;-0.368;2024-03-29T01:09:09;98190.81;;;10.03;59.24
49461;BME280;35355;49.198;-0.368;2024-03-29T01:11:39;98194.47;;;9.98;59.43
49461;BME280;35355;49.198;-0.368;2024-03-29T01:14:05;98198.16;;;9.93;59.63
49461;BME280;35355;49.198;-0.368;2024-03-29T01:16:31;98198.81;;;9.90;59.41
49461;BME280;35355;49.198;-0.368;2024-03-29T01:19:00;98204.91;;;9.87;59.69
49461;BME280;35355;49.198;-0.368;2024-03-29T01:21:31;98209.88;;;9.85;59.47
49461;BME280;35355;49.198;-0.368;2024-03-29T01:23:57;98219.50;;;9.82;59.69
49461;BME280;35355;49.198;-0.368;2024-03-29T01:26:22;98212.28;;;9.78;59.90
49461;BME280;35355;49.198;-0.368;2024-03-29T01:28:48;98217.53;;;9.74;59.86
49461;BME280;35355;49.198;-0.368;2024-03-29T01:31:14;98217.84;;;9.64;59.86
49461;BME280;35355;49.198;-0.368;2024-03-29T01:33:39;98244.94;;;9.69;60.06
49461;BME280;35355;49.198;-0.368;2024-03-29T01:36:09;98235.81;;;9.65;60.09
49461;BME280;35355;49.198;-0.368;2024-03-29T01:38:34;98228.59;;;9.60;60.24
49461;BME280;35355;49.198;-0.368;2024-03-29T01:41:03;98232.59;;;9.63;60.31
49461;BME280;35355;49.198;-0.368;2024-03-29T01:43:28;98233.41;;;9.63;60.67
49461;BME280;35355;49.198;-0.368;2024-03-29T01:45:55;98229.06;;;9.62;60.63
49461;BME280;35355;49.198;-0.368;2024-03-29T01:48:24;98225.72;;;9.65;60.59
49461;BME280;35355;49.198;-0.368;2024-03-29T01:50:53;98240.28;;;9.70;60.77
49461;BME280;35355;49.198;-0.368;2024-03-29T01:53:19;98243.00;;;9.70;60.71
49461;BME280;35355;49.198;-0.368;2024-03-29T01:55:49;98225.09;;;9.69;60.79
49461;BME280;35355;49.198;-0.368;2024-03-29T01:58:19;98239.19;;;9.71;60.76
49461;BME280;35355;49.198;-0.368;2024-03-29T02:00:52;98244.16;;;9.69;61.01
49461;BME280;35355;49.198;-0.368;2024-03-29T02:03:19;98240.94;;;9.66;61.16
49461;BME280;35355;49.198;-0.368;2024-03-29T02:05:45;98250.72;;;9.68;61.01
49461;BME280;35355;49.198;-0.368;2024-03-29T02:08:11;98249.09;;;9.66;61.38
49461;BME280;35355;49.198;-0.368;2024-03-29T02:10:37;98249.09;;;9.66;61.45
49461;BME280;35355;49.198;-0.368;2024-03-29T02:13:03;98248.00;;;9.68;61.50
49461;BME280;35355;49.198;-0.368;2024-03-29T02:15:30;98248.78;;;9.68;61.15
49461;BME280;35355;49.198;-0.368;2024-03-29T02:17:57;98242.53;;;9.68;61.51
49461;BME280;35355;49.198;-0.368;2024-03-29T02:20:26;98243.34;;;9.68;61.62
49461;BME280;35355;49.198;-0.368;2024-03-29T02:22:57;98232.75;;;9.66;61.96
49461;BME280;35355;49.198;-0.368;2024-03-29T02:25:23;98232.75;;;9.66;61.71
49461;BME280;35355;49.198;-0.368;2024-03-29T02:27:50;98225.72;;;9.65;61.71
49461;BME280;35355;49.198;-0.368;2024-03-29T02:30:19;98230.34;;;9.65;61.86
49461;BME280;35355;49.198;-0.368;2024-03-29T02:32:45;98224.75;;;9.61;61.99
49461;BME280;35355;49.198;-0.368;2024-03-29T02:35:11;98223.28;;;9.64;62.16
49461;BME280;35355;49.198;-0.368;2024-03-29T02:37:36;98235.00;;;9.64;62.13
49461;BME280;35355;49.198;-0.368;2024-03-29T02:40:05;98250.53;;;9.64;62.10
49461;BME280;35355;49.198;-0.368;2024-03-29T02:42:31;98248.13;;;9.62;62.30
49461;BME280;35355;49.198;-0.368;2024-03-29T02:44:58;98251.00;;;9.57;61.95
49461;BME280;35355;49.198;-0.368;2024-03-29T02:47:23;98237.38;;;9.57;62.22
49461;BME280;35355;49.198;-0.368;2024-03-29T02:49:49;98245.09;;;9.55;62.25
49461;BME280;35355;49.198;-0.368;2024-03-29T02:52:14;98235.63;;;9.53;62.08
49461;BME280;35355;49.198;-0.368;2024-03-29T02:54:41;98239.44;;;9.52;62.42
49461;BME280;35355;49.198;-0.368;2024-03-29T02:57:07;98235.44;;;9.49;62.41
49461;BME280;35355;49.198;-0.368;2024-03-29T02:59:32;98232.72;;;9.49;62.47
49461;BME280;35355;49.198;-0.368;2024-03-29T03:02:01;98234.66;;;9.48;62.25
49461;BME280;35355;49.198;-0.368;2024-03-29T03:04:27;98233.84;;;9.48;62.54
49461;BME280;35355;49.198;-0.368;2024-03-29T03:06:52;98239.28;;;9.48;62.49
49461;BME280;35355;49.198;-0.368;2024-03-29T03:09:18;98223.09;;;9.43;62.53
49461;BME280;35355;49.198;-0.368;2024-03-29T03:12:02;98223.09;;;9.43;62.47
49461;BME280;35355;49.198;-0.368;2024-03-29T03:14:28;98218.75;;;9.42;62.52
49461;BME280;35355;49.198;-0.368;2024-03-29T03:16:54;98200.00;;;9.40;62.75
49461;BME280;35355;49.198;-0.368;2024-03-29T03:19:19;98194.88;;;9.39;62.79
49461;BME280;35355;49.198;-0.368;2024-03-29T03:21:47;98194.88;;;9.39;62.41
49461;BME280;35355;49.198;-0.368;2024-03-29T03:24:18;98203.38;;;9.37;62.66
49461;BME280;35355;49.198;-0.368;2024-03-29T03:26:43;98215.72;;;9.35;62.82
49461;BME280;35355;49.198;-0.368;2024-03-29T03:29:12;98212.50;;;9.33;62.61
49461;BME280;35355;49.198;-0.368;2024-03-29T03:31:37;98223.38;;;9.33;62.62
49461;BME280;35355;49.198;-0.368;2024-03-29T03:34:03;98229.31;;;9.35;62.97
49461;BME280;35355;49.198;-0.368;2024-03-29T03:36:34;98227.25;;;9.32;62.82
49461;BME280;35355;49.198;-0.368;2024-03-29T03:38:59;98214.72;;;9.30;62.95
49461;BME280;35355;49.198;-0.368;2024-03-29T03:41:27;98209.94;;;9.27;63.04
49461;BME280;35355;49.198;-0.368;2024-03-29T03:43:53;98212.66;;;9.27;63.29
49461;BME280;35355;49.198;-0.368;2024-03-29T03:46:18;98220.63;;;9.24;63.44
49461;BME280;35355;49.198;-0.368;2024-03-29T03:48:44;98220.47;;;9.20;63.37
49461;BME280;35355;49.198;-0.368;2024-03-29T03:51:09;98226.53;;;9.17;63.36
49461;BME280;35355;49.198;-0.368;2024-03-29T03:53:35;98231.16;;;9.17;63.48
49461;BME280;35355;49.198;-0.368;2024-03-29T03:56:00;98233.41;;;9.15;63.66
49461;BME280;35355;49.198;-0.368;2024-03-29T03:58:26;98241.88;;;9.13;63.47
49461;BME280;35355;49.198;-0.368;2024-03-29T04:00:52;98245.72;;;9.12;63.81
49461;BME280;35355;49.198;-0.368;2024-03-29T04:03:19;98251.00;;;9.08;63.85
49461;BME280;35355;49.198;-0.368;2024-03-29T04:05:45;98238.69;;;9.11;63.95
49461;BME280;35355;49.198;-0.368;2024-03-29T04:08:10;98241.22;;;9.07;63.78
49461;BME280;35355;49.198;-0.368;2024-03-29T04:10:39;98230.78;;;9.01;63.66
49461;BME280;35355;49.198;-0.368;2024-03-29T04:13:05;98237.69;;;9.07;63.81
49461;BME280;35355;49.198;-0.368;2024-03-29T04:15:30;98231.28;;;9.03;63.95
49461;BME280;35355;49.198;-0.368;2024-03-29T04:17:59;98232.25;;;9.07;63.99
49461;BME280;35355;49.198;-0.368;2024-03-29T04:20:25;98234.47;;;9.05;63.91
49461;BME280;35355;49.198;-0.368;2024-03-29T04:22:50;98242.94;;;9.03;64.02
49461;BME280;35355;49.198;-0.368;2024-03-29T04:25:15;98238.31;;;9.04;64.11
49461;BME280;35355;49.198;-0.368;2024-03-29T04:27:41;98246.50;;;9.04;64.27
49461;BME280;35355;49.198;-0.368;2024-03-29T04:30:07;98238.31;;;9.04;64.02
49461;BME280;35355;49.198;-0.368;2024-03-29T04:32:33;98255.75;;;9.03;64.35
49461;BME280;35355;49.198;-0.368;2024-03-29T04:34:58;98245.50;;;9.00;64.22
49461;BME280;35355;49.198;-0.368;2024-03-29T04:37:23;98236.72;;;9.03;64.29
49461;BME280;35355;49.198;-0.368;2024-03-29T04:39:49;98249.53;;;9.02;64.22
49461;BME280;35355;49.198;-0.368;2024-03-29T04:42:14;98258.47;;;9.03;64.20
49461;BME280;35355;49.198;-0.368;2024-03-29T04:44:40;98242.78;;;9.00;64.36
49461;BME280;35355;49.198;-0.368;2024-03-29T04:47:06;98238.44;;;8.99;64.23
49461;BME280;35355;49.198;-0.368;2024-03-29T04:49:32;98241.16;;;8.99;64.31
49461;BME280;35355;49.198;-0.368;2024-03-29T04:52:08;98233.31;;;8.97;64.45
49461;BME280;35355;49.198;-0.368;2024-03-29T04:54:36;98232.22;;;8.98;64.40
49461;BME280;35355;49.198;-0.368;2024-03-29T04:57:02;98230.28;;;8.99;64.46
49461;BME280;35355;49.198;-0.368;2024-03-29T04:59:31;98227.88;;;8.97;64.55
49461;BME280;35355;49.198;-0.368;2024-03-29T05:01:58;98227.09;;;8.97;64.12
49461;BME280;35355;49.198;-0.368;2024-03-29T05:04:24;98236.34;;;8.95;64.51
49461;BME280;35355;49.198;-0.368;2024-03-29T05:07:02;98241.31;;;8.93;64.62
49461;BME280;35355;49.198;-0.368;2024-03-29T05:09:27;98244.03;;;8.93;64.17
49461;BME280;35355;49.198;-0.368;2024-03-29T05:11:53;98250.91;;;8.91;64.58
49461;BME280;35355;49.198;-0.368;2024-03-29T05:14:20;98263.19;;;8.88;64.48
49461;BME280;35355;49.198;-0.368;2024-03-29T05:16:46;98262.41;;;8.88;64.68
49461;BME280;35355;49.198;-0.368;2024-03-29T05:19:13;98262.22;;;8.84;64.60
49461;BME280;35355;49.198;-0.368;2024-03-29T05:21:38;98271.50;;;8.83;64.65
49461;BME280;35355;49.198;-0.368;2024-03-29T05:24:04;98268.28;;;8.81;64.70
49461;BME280;35355;49.198;-0.368;2024-03-29T05:26:30;98267.78;;;8.79;64.84
49461;BME280;35355;49.198;-0.368;2024-03-29T05:28:56;98274.34;;;8.78;65.07
49461;BME280;35355;49.198;-0.368;2024-03-29T05:31:22;98266.50;;;8.76;65.21
49461;BME280;35355;49.198;-0.368;2024-03-29T05:33:48;98266.50;;;8.76;65.02
49461;BME280;35355;49.198;-0.368;2024-03-29T05:36:13;98272.75;;;8.77;65.09
49461;BME280;35355;49.198;-0.368;2024-03-29T05:38:39;98285.03;;;8.74;65.30
49461;BME280;35355;49.198;-0.368;2024-03-29T05:41:05;98289.19;;;8.72;65.28
49461;BME280;35355;49.198;-0.368;2024-03-29T05:43:31;98294.63;;;8.72;65.57
49461;BME280;35355;49.198;-0.368;2024-03-29T05:45:56;98298.44;;;8.71;65.23
49461;BME280;35355;49.198;-0.368;2024-03-29T05:48:22;98303.25;;;8.74;65.42
49461;BME280;35355;49.198;-0.368;2024-03-29T05:50:47;98302.97;;;8.75;65.51
49461;BME280;35355;49.198;-0.368;2024-03-29T05:53:13;98294.00;;;8.75;65.66
49461;BME280;35355;49.198;-0.368;2024-03-29T05:55:38;98287.94;;;8.78;65.69
49461;BME280;35355;49.198;-0.368;2024-03-29T05:58:04;98283.50;;;8.82;66.07
49461;BME280;35355;49.198;-0.368;2024-03-29T06:00:32;98281.75;;;8.86;66.02
49461;BME280;35355;49.198;-0.368;2024-03-29T06:03:00;98300.03;;;8.94;65.96
49461;BME280;35355;49.198;-0.368;2024-03-29T06:05:28;98302.16;;;8.98;65.81
49461;BME280;35355;49.198;-0.368;2024-03-29T06:07:54;98313.69;;;9.03;66.03
49461;BME280;35355;49.198;-0.368;2024-03-29T06:10:20;98320.91;;;9.08;66.01
49461;BME280;35355;49.198;-0.368;2024-03-29T06:12:46;98311.03;;;9.12;65.94
49461;BME280;35355;49.198;-0.368;2024-03-29T06:15:11;98299.50;;;9.15;66.00
49461;BME280;35355;49.198;-0.368;2024-03-29T06:17:55;98298.88;;;9.18;66.01
49461;BME280;35355;49.198;-0.368;2024-03-29T06:20:20;98288.50;;;9.20;66.06
49461;BME280;35355;49.198;-0.368;2024-03-29T06:22:46;98294.44;;;9.22;66.14
49461;BME280;35355;49.198;-0.368;2024-03-29T06:25:12;98300.84;;;9.26;66.08
49461;BME280;35355;49.198;-0.368;2024-03-29T06:27:37;98299.75;;;9.27;66.21
49461;BME280;35355;49.198;-0.368;2024-03-29T06:30:04;98310.00;;;9.30;66.19
49461;BME280;35355;49.198;-0.368;2024-03-29T06:32:31;98309.84;;;9.36;66.14
49461;BME280;35355;49.198;-0.368;2024-03-29T06:34:58;98314.69;;;9.39;66.15
49461;BME280;35355;49.198;-0.368;2024-03-29T06:37:24;98317.28;;;9.44;66.12
49461;BME280;35355;49.198;-0.368;2024-03-29T06:39:51;98312.81;;;9.48;66.14
49461;BME280;35355;49.198;-0.368;2024-03-29T06:42:16;98332.34;;;9.50;66.16
49461;BME280;35355;49.198;-0.368;2024-03-29T06:44:42;98342.63;;;9.53;66.07
49461;BME280;35355;49.198;-0.368;2024-03-29T06:47:08;98339.25;;;9.56;66.26
49461;BME280;35355;49.198;-0.368;2024-03-29T06:49:34;98329.50;;;9.55;66.25
49461;BME280;35355;49.198;-0.368;2024-03-29T06:51:59;98332.06;;;9.60;66.30
49461;BME280;35355;49.198;-0.368;2024-03-29T06:54:27;98348.91;;;9.62;66.15
49461;BME280;35355;49.198;-0.368;2024-03-29T06:56:53;98348.28;;;9.65;66.31
49461;BME280;35355;49.198;-0.368;2024-03-29T06:59:19;98341.72;;;9.66;66.36
49461;BME280;35355;49.198;-0.368;2024-03-29T07:01:44;98350.88;;;9.71;66.00
49461;BME280;35355;49.198;-0.368;2024-03-29T07:04:10;98354.56;;;9.75;66.05
49461;BME280;35355;49.198;-0.368;2024-03-29T07:06:35;98352.31;;;9.77;66.18
49461;BME280;35355;49.198;-0.368;2024-03-29T07:09:03;98346.25;;;9.80;66.33
49461;BME280;35355;49.198;-0.368;2024-03-29T07:11:29;98365.19;;;9.85;66.12
49461;BME280;35355;49.198;-0.368;2024-03-29T07:13:55;98351.41;;;9.90;66.19
49461;BME280;35355;49.198;-0.368;2024-03-29T07:16:20;98350.13;;;9.96;66.22
49461;BME280;35355;49.198;-0.368;2024-03-29T07:18:45;98352.41;;;10.03;66.33
49461;BME280;35355;49.198;-0.368;2024-03-29T07:21:11;98348.41;;;10.09;66.03
49461;BME280;35355;49.198;-0.368;2024-03-29T07:23:36;98357.88;;;10.12;65.79
49461;BME280;35355;49.198;-0.368;2024-03-29T07:26:03;98364.94;;;10.13;65.83
49461;BME280;35355;49.198;-0.368;2024-03-29T07:28:29;98356.13;;;10.16;66.13
49461;BME280;35355;49.198;-0.368;2024-03-29T07:30:55;98365.59;;;10.18;65.80
49461;BME280;35355;49.198;-0.368;2024-03-29T07:33:22;98365.59;;;10.27;65.85
49461;BME280;35355;49.198;-0.368;2024-03-29T07:35:54;98370.00;;;10.37;65.77
49461;BME280;35355;49.198;-0.368;2024-03-29T07:38:20;98387.16;;;10.55;65.95
49461;BME280;35355;49.198;-0.368;2024-03-29T07:40:49;98394.06;;;10.70;65.81
49461;BME280;35355;49.198;-0.368;2024-03-29T07:43:15;98390.88;;;10.85;65.56
49461;BME280;35355;49.198;-0.368;2024-03-29T07:45:42;98398.44;;;10.97;65.62
49461;BME280;35355;49.198;-0.368;2024-03-29T07:48:13;98385.75;;;11.10;65.43
49461;BME280;35355;49.198;-0.368;2024-03-29T07:50:47;98389.41;;;11.23;64.97
49461;BME280;35355;49.198;-0.368;2024-03-29T07:53:13;98385.22;;;11.34;64.55
49461;BME280;35355;49.198;-0.368;2024-03-29T07:55:40;98389.69;;;11.48;64.19
49461;BME280;35355;49.198;-0.368;2024-03-29T07:58:06;98377.28;;;11.59;64.42
49461;BME280;35355;49.198;-0.368;2024-03-29T08:00:34;98385.59;;;11.71;64.21
49461;BME280;35355;49.198;-0.368;2024-03-29T08:03:00;98395.03;;;11.83;63.91
49461;BME280;35355;49.198;-0.368;2024-03-29T08:05:29;98389.38;;;11.88;63.75
49461;BME280;35355;49.198;-0.368;2024-03-29T08:07:54;98389.22;;;11.93;63.21
49461;BME280;35355;49.198;-0.368;2024-03-29T08:10:20;98387.44;;;11.97;63.56
49461;BME280;35355;49.198;-0.368;2024-03-29T08:12:45;98391.28;;;12.05;63.53
49461;BME280;35355;49.198;-0.368;2024-03-29T08:15:10;98395.53;;;12.15;63.07
49461;BME280;35355;49.198;-0.368;2024-03-29T08:17:36;98398.25;;;12.23;62.90
49461;BME280;35355;49.198;-0.368;2024-03-29T08:20:02;98368.44;;;12.31;62.64
49461;BME280;35355;49.198;-0.368;2024-03-29T08:22:28;98385.59;;;12.40;62.63
49461;BME280;35355;49.198;-0.368;2024-03-29T08:24:54;98396.47;;;12.49;61.96
49461;BME280;35355;49.198;-0.368;2024-03-29T08:27:19;98402.22;;;12.56;62.07
49461;BME280;35355;49.198;-0.368;2024-03-29T08:29:45;98405.13;;;12.59;62.26
49461;BME280;35355;49.198;-0.368;2024-03-29T08:32:10;98392.00;;;12.65;61.66
49461;BME280;35355;49.198;-0.368;2024-03-29T08:34:36;98408.59;;;12.69;61.67
49461;BME280;35355;49.198;-0.368;2024-03-29T08:37:02;98406.44;;;12.74;61.55
49461;BME280;35355;49.198;-0.368;2024-03-29T08:39:31;98404.66;;;12.78;61.49
49461;BME280;35355;49.198;-0.368;2024-03-29T08:41:59;98417.47;;;12.87;61.29
49461;BME280;35355;49.198;-0.368;2024-03-29T08:44:30;98412.72;;;12.96;61.21
49461;BME280;35355;49.198;-0.368;2024-03-29T08:46:55;98414.31;;;12.97;60.85
49461;BME280;35355;49.198;-0.368;2024-03-29T08:49:22;98395.75;;;13.03;60.91
49461;BME280;35355;49.198;-0.368;2024-03-29T08:51:47;98397.47;;;13.07;60.82
49461;BME280;35355;49.198;-0.368;2024-03-29T08:54:13;98406.75;;;13.15;60.93
49461;BME280;35355;49.198;-0.368;2024-03-29T08:56:38;98391.69;;;13.21;60.61
49461;BME280;35355;49.198;-0.368;2024-03-29T08:59:06;98407.28;;;13.29;60.45
49461;BME280;35355;49.198;-0.368;2024-03-29T09:01:37;98408.53;;;13.32;60.06
49461;BME280;35355;49.198;-0.368;2024-03-29T09:04:03;98412.84;;;13.33;59.99
49461;BME280;35355;49.198;-0.368;2024-03-29T09:06:32;98420.16;;;13.29;59.59
49461;BME280;35355;49.198;-0.368;2024-03-29T09:08:57;98420.38;;;13.24;59.73
49461;BME280;35355;49.198;-0.368;2024-03-29T09:11:23;98418.31;;;13.21;59.94
49461;BME280;35355;49.198;-0.368;2024-03-29T09:13:48;98418.31;;;13.21;60.11
49461;BME280;35355;49.198;-0.368;2024-03-29T09:16:13;98422.78;;;13.25;60.10
49461;BME280;35355;49.198;-0.368;2024-03-29T09:18:39;98406.28;;;13.34;60.03
49461;BME280;35355;49.198;-0.368;2024-03-29T09:21:04;98403.00;;;13.41;59.84
49461;BME280;35355;49.198;-0.368;2024-03-29T09:23:29;98403.25;;;13.48;59.78
49461;BME280;35355;49.198;-0.368;2024-03-29T09:25:56;98389.91;;;13.59;59.37
49461;BME280;35355;49.198;-0.368;2024-03-29T09:28:23;98418.34;;;13.66;59.37
49461;BME280;35355;49.198;-0.368;2024-03-29T09:30:48;98409.94;;;13.72;58.81
49461;BME280;35355;49.198;-0.368;2024-03-29T09:33:13;98417.47;;;13.75;58.71
49461;BME280;35355;49.198;-0.368;2024-03-29T09:35:39;98414.06;;;13.78;58.68
49461;BME280;35355;49.198;-0.368;2024-03-29T09:38:04;98397.03;;;13.84;58.43
49461;BME280;35355;49.198;-0.368;2024-03-29T09:40:30;98401.16;;;13.91;58.46
49461;BME280;35355;49.198;-0.368;2024-03-29T09:42:56;98390.31;;;13.94;58.14
49461;BME280;35355;49.198;-0.368;2024-03-29T09:45:33;98384.91;;;13.98;58.11
49461;BME280;35355;49.198;-0.368;2024-03-29T09:48:07;98376.81;;;14.01;57.90
49461;BME280;35355;49.198;-0.368;2024-03-29T09:50:33;98395.34;;;14.04;57.24
49461;BME280;35355;49.198;-0.368;2024-03-29T09:53:01;98379.66;;;14.05;57.07
49461;BME280;35355;49.198;-0.368;2024-03-29T09:55:27;98397.03;;;14.09;56.95
49461;BME280;35355;49.198;-0.368;2024-03-29T09:57:53;98399.56;;;14.14;56.84
49461;BME280;35355;49.198;-0.368;2024-03-29T10:00:18;98395.47;;;14.20;56.76
49461;BME280;35355;49.198;-0.368;2024-03-29T10:02:44;98391.34;;;14.27;56.88
49461;BME280;35355;49.198;-0.368;2024-03-29T10:05:11;98408.94;;;14.38;56.93
49461;BME280;35355;49.198;-0.368;2024-03-29T10:07:38;98421.72;;;14.46;56.70
49461;BME280;35355;49.198;-0.368;2024-03-29T10:10:04;98414.41;;;14.50;56.62
49461;BME280;35355;49.198;-0.368;2024-03-29T10:12:30;98420.34;;;14.52;56.56
49461;BME280;35355;49.198;-0.368;2024-03-29T10:14:56;98409.00;;;14.54;56.76
49461;BME280;35355;49.198;-0.368;2024-03-29T10:17:30;98430.63;;;14.55;56.81
49461;BME280;35355;49.198;-0.368;2024-03-29T10:20:00;98409.84;;;14.54;56.84
49461;BME280;35355;49.198;-0.368;2024-03-29T10:22:25;98412.09;;;14.52;56.65
49461;BME280;35355;49.198;-0.368;2024-03-29T10:24:51;98433.63;;;14.50;56.20
49461;BME280;35355;49.198;-0.368;2024-03-29T10:27:17;98416.94;;;14.43;55.21
49461;BME280;35355;49.198;-0.368;2024-03-29T10:29:42;98420.81;;;14.42;55.21
49461;BME280;35355;49.198;-0.368;2024-03-29T10:32:07;98412.22;;;14.44;55.09
49461;BME280;35355;49.198;-0.368;2024-03-29T10:34:34;98402.84;;;14.45;54.83
49461;BME280;35355;49.198;-0.368;2024-03-29T10:37:02;98418.63;;;14.48;54.63
49461;BME280;35355;49.198;-0.368;2024-03-29T10:39:29;98421.72;;;14.46;54.45
49461;BME280;35355;49.198;-0.368;2024-03-29T10:41:55;98412.34;;;14.47;54.09
49461;BME280;35355;49.198;-0.368;2024-03-29T10:44:22;98419.44;;;14.48;54.12
49461;BME280;35355;49.198;-0.368;2024-03-29T10:46:50;98414.50;;;14.54;53.60
49461;BME280;35355;49.198;-0.368;2024-03-29T10:49:16;98415.31;;;14.54;53.33
49461;BME280;35355;49.198;-0.368;2024-03-29T10:51:42;98412.09;;;14.52;53.40
49461;BME280;35355;49.198;-0.368;2024-03-29T10:54:09;98417.50;;;14.49;53.19
49461;BME280;35355;49.198;-0.368;2024-03-29T10:56:36;98417.84;;;14.47;53.06
49461;BME280;35355;49.198;-0.368;2024-03-29T10:59:12;98409.25;;;14.49;53.92
49461;BME280;35355;49.198;-0.368;2024-03-29T11:01:41;98410.97;;;14.53;53.28
49461;BME280;35355;49.198;-0.368;2024-03-29T11:04:18;98416.81;;;14.52;53.71
49461;BME280;35355;49.198;-0.368;2024-03-29T11:06:47;98399.06;;;14.49;52.85
49461;BME280;35355;49.198;-0.368;2024-03-29T11:09:15;98410.88;;;14.50;52.82
49461;BME280;35355;49.198;-0.368;2024-03-29T11:11:44;98401.59;;;14.54;53.01
49461;BME280;35355;49.198;-0.368;2024-03-29T11:14:16;98395.19;;;14.63;53.05
49461;BME280;35355;49.198;-0.368;2024-03-29T11:16:43;98404.34;;;14.67;52.29
49461;BME280;35355;49.198;-0.368;2024-03-29T11:19:12;98410.97;;;14.66;52.32
49461;BME280;35355;49.198;-0.368;2024-03-29T11:21:40;98421.50;;;14.64;52.22
49461;BME280;35355;49.198;-0.368;2024-03-29T11:24:08;98416.00;;;14.64;51.89
49461;BME280;35355;49.198;-0.368;2024-03-29T11:26:34;98428.59;;;14.65;51.71
49461;BME280;35355;49.198;-0.368;2024-03-29T11:29:00;98426.31;;;14.67;51.68
49461;BME280;35355;49.198;-0.368;2024-03-29T11:31:27;98419.41;;;14.73;51.52
49461;BME280;35355;49.198;-0.368;2024-03-29T11:33:52;98440.34;;;14.78;51.54
49461;BME280;35355;49.198;-0.368;2024-03-29T11:36:28;98439.22;;;14.79;51.45
49461;BME280;35355;49.198;-0.368;2024-03-29T11:38:56;98456.94;;;14.81;51.15
49461;BME280;35355;49.198;-0.368;2024-03-29T11:41:25;98453.28;;;14.77;51.03
49461;BME280;35355;49.198;-0.368;2024-03-29T11:43:53;98454.06;;;14.78;51.04
49461;BME280;35355;49.198;-0.368;2024-03-29T11:46:18;98455.69;;;14.79;51.09
49461;BME280;35355;49.198;-0.368;2024-03-29T11:48:45;98446.75;;;14.82;50.70
49461;BME280;35355;49.198;-0.368;2024-03-29T11:51:18;98467.25;;;14.84;50.70
49461;BME280;35355;49.198;-0.368;2024-03-29T11:53:46;98455.22;;;14.89;50.45
49461;BME280;35355;49.198;-0.368;2024-03-29T11:56:11;98473.41;;;14.94;49.84
49461;BME280;35355;49.198;-0.368;2024-03-29T11:58:39;98467.22;;;14.97;49.76
49461;BME280;35355;49.198;-0.368;2024-03-29T12:01:05;98462.63;;;15.01;49.80
49461;BME280;35355;49.198;-0.368;2024-03-29T12:03:31;98470.16;;;15.04;49.70
49461;BME280;35355;49.198;-0.368;2024-03-29T12:05:58;98476.31;;;15.13;49.35
49461;BME280;35355;49.198;-0.368;2024-03-29T12:08:32;98471.84;;;15.21;49.08
49461;BME280;35355;49.198;-0.368;2024-03-29T12:10:59;98466.09;;;15.26;48.64
49461;BME280;35355;49.198;-0.368;2024-03-29T12:13:25;98461.06;;;15.28;48.79
49461;BME280;35355;49.198;-0.368;2024-03-29T12:15:51;98456.44;;;15.32;48.80
49461;BME280;35355;49.198;-0.368;2024-03-29T12:18:20;98448.66;;;15.34;48.72
49461;BME280;35355;49.198;-0.368;2024-03-29T12:20:45;98465.94;;;15.35;48.21
49461;BME280;35355;49.198;-0.368;2024-03-29T12:23:16;98467.22;;;15.37;48.46
49461;BME280;35355;49.198;-0.368;2024-03-29T12:25:42;98462.84;;;15.36;48.26
49461;BME280;35355;49.198;-0.368;2024-03-29T12:28:10;98475.81;;;15.36;48.28
49461;BME280;35355;49.198;-0.368;2024-03-29T12:30:36;98478.56;;;15.36;48.26
49461;BME280;35355;49.198;-0.368;2024-03-29T12:35:32;98465.72;;;15.40;48.64
49461;BME280;35355;49.198;-0.368;2024-03-29T12:38:02;98472.09;;;15.44;49.07
49461;BME280;35355;49.198;-0.368;2024-03-29T12:40:30;98464.31;;;15.46;48.68
49461;BME280;35355;49.198;-0.368;2024-03-29T12:43:03;98468.63;;;15.47;48.94
49461;BME280;35355;49.198;-0.368;2024-03-29T12:45:30;98477.34;;;15.49;49.06
49461;BME280;35355;49.198;-0.368;2024-03-29T12:47:55;98467.63;;;15.52;48.65
49461;BME280;35355;49.198;-0.368;2024-03-29T12:50:27;98471.94;;;15.53;49.10
49461;BME280;35355;49.198;-0.368;2024-03-29T12:52:58;98462.91;;;15.52;49.07
49461;BME280;35355;49.198;-0.368;2024-03-29T12:55:24;98460.16;;;15.52;49.13